CYZT

Port Hardy Airport

Port Hardy, , Canada
TAF CYZT 260038Z 2601/2613 VRB03KT P6SM SKC RMK NXT FCST BY 260700Z
Issued Valid From Valid To
Apr-26 @ 00:38 UTC
(5 hours ago)
Apr-26 @ 01:00 UTC
(5 hours ago)
Apr-26 @ 13:00 UTC
(in 7 hours)
Apr-26 @ 01:00 to Apr-26 @ 13:00
TAF CYZT 260038Z 2601/2613 VRB03KT P6SM SKC RMK NXT FCST BY 260700Z
Wind Visibility Clouds
Variable at 3 knots Greater than 6 miles
  • Clear skies
TAF CYZT 260038Z 2601/2613 VRB03KT P6SM SKC RMK NXT FCST BY 260700Z
Issued Apr-26 @ 00:38 UTC
(5 hours ago)
Valid From Apr-26 @ 01:00 UTC
(5 hours ago)
Valid To Apr-26 @ 13:00 UTC
(in 7 hours)
Apr-26 @ 01:00 - Apr-26 @ 13:00
Wind Visibility
Variable at 3 knots Greater than 6 miles
Clouds
  • Clear skies